sensor_id;sensor_type;location;lat;lon;timestamp;pressure;altitude;pressure_sealevel;temperature;humidity
3260;BME280;22469;48.150;14.004;2023-02-18T00:01:35;98673.53;;;15.77;55.96
3260;BME280;22469;48.150;14.004;2023-02-18T00:04:02;98680.78;;;15.69;56.09
3260;BME280;22469;48.150;14.004;2023-02-18T00:06:32;98670.63;;;15.43;56.61
3260;BME280;22469;48.150;14.004;2023-02-18T00:09:01;98670.88;;;15.36;56.79
3260;BME280;22469;48.150;14.004;2023-02-18T00:11:33;98682.78;;;15.40;56.85
3260;BME280;22469;48.150;14.004;2023-02-18T00:14:02;98669.66;;;15.87;55.72
3260;BME280;22469;48.150;14.004;2023-02-18T00:16:31;98669.44;;;15.72;56.29
3260;BME280;22469;48.150;14.004;2023-02-18T00:19:00;98678.13;;;15.71;56.41
3260;BME280;22469;48.150;14.004;2023-02-18T00:21:29;98686.31;;;15.38;57.12
3260;BME280;22469;48.150;14.004;2023-02-18T00:23:56;98681.53;;;15.71;56.06
3260;BME280;22469;48.150;14.004;2023-02-18T00:26:24;98671.91;;;15.75;55.88
3260;BME280;22469;48.150;14.004;2023-02-18T00:28:51;98684.22;;;15.70;55.81
3260;BME280;22469;48.150;14.004;2023-02-18T00:31:25;98691.91;;;15.49;56.87
3260;BME280;22469;48.150;14.004;2023-02-18T00:33:56;98669.66;;;15.67;56.50
3260;BME280;22469;48.150;14.004;2023-02-18T00:36:24;98662.47;;;15.74;56.19
3260;BME280;22469;48.150;14.004;2023-02-18T00:38:54;98673.09;;;15.46;56.96
3260;BME280;22469;48.150;14.004;2023-02-18T00:41:26;98673.63;;;15.54;57.11
3260;BME280;22469;48.150;14.004;2023-02-18T00:43:54;98673.78;;;15.71;55.95
3260;BME280;22469;48.150;14.004;2023-02-18T00:46:23;98676.28;;;15.52;56.85
3260;BME280;22469;48.150;14.004;2023-02-18T00:48:50;98687.81;;;15.44;57.03
3260;BME280;22469;48.150;14.004;2023-02-18T00:51:17;98684.25;;;15.26;57.58
3260;BME280;22469;48.150;14.004;2023-02-18T00:53:44;98675.75;;;15.64;56.83
3260;BME280;22469;48.150;14.004;2023-02-18T00:56:11;98675.78;;;15.85;55.98
3260;BME280;22469;48.150;14.004;2023-02-18T00:58:39;98675.13;;;15.59;57.09
3260;BME280;22469;48.150;14.004;2023-02-18T01:01:07;98691.00;;;15.50;57.08
3260;BME280;22469;48.150;14.004;2023-02-18T01:03:36;98687.91;;;15.42;57.68
3260;BME280;22469;48.150;14.004;2023-02-18T01:06:05;98695.69;;;15.40;57.34
3260;BME280;22469;48.150;14.004;2023-02-18T01:08:35;98691.81;;;15.30;57.95
3260;BME280;22469;48.150;14.004;2023-02-18T01:11:03;98695.81;;;15.37;58.09
3260;BME280;22469;48.150;14.004;2023-02-18T01:13:31;98696.25;;;15.49;57.87
3260;BME280;22469;48.150;14.004;2023-02-18T01:15:59;98693.00;;;15.44;57.94
3260;BME280;22469;48.150;14.004;2023-02-18T01:18:26;98692.41;;;15.37;57.85
3260;BME280;22469;48.150;14.004;2023-02-18T01:20:53;98699.66;;;15.71;56.76
3260;BME280;22469;48.150;14.004;2023-02-18T01:23:21;98691.88;;;15.71;56.35
3260;BME280;22469;48.150;14.004;2023-02-18T01:25:49;98698.38;;;15.59;57.21
3260;BME280;22469;48.150;14.004;2023-02-18T01:28:17;98696.16;;;15.72;56.64
3260;BME280;22469;48.150;14.004;2023-02-18T01:30:46;98692.00;;;15.68;56.63
3260;BME280;22469;48.150;14.004;2023-02-18T01:33:13;98692.91;;;15.45;57.73
3260;BME280;22469;48.150;14.004;2023-02-18T01:35:40;98694.31;;;15.54;57.08
3260;BME280;22469;48.150;14.004;2023-02-18T01:38:08;98686.94;;;15.65;57.11
3260;BME280;22469;48.150;14.004;2023-02-18T01:40:42;98686.97;;;15.85;55.99
3260;BME280;22469;48.150;14.004;2023-02-18T01:43:13;98690.16;;;15.50;57.24
3260;BME280;22469;48.150;14.004;2023-02-18T01:48:22;98688.41;;;15.50;57.28
3260;BME280;22469;48.150;14.004;2023-02-18T01:51:28;98680.81;;;15.25;58.25
3260;BME280;22469;48.150;14.004;2023-02-18T01:59:25;98690.81;;;15.12;58.68
3260;BME280;22469;48.150;14.004;2023-02-18T02:01:57;98677.75;;;14.93;58.81
3260;BME280;22469;48.150;14.004;2023-02-18T02:04:25;98681.94;;;15.40;57.62
3260;BME280;22469;48.150;14.004;2023-02-18T02:06:52;98679.75;;;15.51;57.02
3260;BME280;22469;48.150;14.004;2023-02-18T02:09:21;98681.47;;;15.30;57.96
3260;BME280;22469;48.150;14.004;2023-02-18T02:18:15;98678.13;;;15.71;56.17
3260;BME280;22469;48.150;14.004;2023-02-18T02:41:22;98661.97;;;15.44;57.75
3260;BME280;22469;48.150;14.004;2023-02-18T02:46:29;98659.25;;;15.26;58.10
3260;BME280;22469;48.150;14.004;2023-02-18T02:54:33;98651.84;;;15.39;57.99
3260;BME280;22469;48.150;14.004;2023-02-18T02:57:43;98656.84;;;15.22;58.39
3260;BME280;22469;48.150;14.004;2023-02-18T03:00:00;98667.13;;;15.01;59.04
3260;BME280;22469;48.150;14.004;2023-02-18T03:03:23;98664.84;;;15.15;58.89
3260;BME280;22469;48.150;14.004;2023-02-18T03:06:34;98667.78;;;15.06;59.39
3260;BME280;22469;48.150;14.004;2023-02-18T03:12:23;98654.31;;;15.20;58.45
3260;BME280;22469;48.150;14.004;2023-02-18T03:15:10;98659.59;;;15.17;59.04
3260;BME280;22469;48.150;14.004;2023-02-18T03:21:07;98661.28;;;14.74;60.26
3260;BME280;22469;48.150;14.004;2023-02-18T03:23:41;98660.41;;;14.52;61.39
3260;BME280;22469;48.150;14.004;2023-02-18T03:26:15;98657.91;;;14.49;61.84
3260;BME280;22469;48.150;14.004;2023-02-18T03:28:45;98662.47;;;14.65;61.26
3260;BME280;22469;48.150;14.004;2023-02-18T03:31:18;98661.34;;;14.73;61.05
3260;BME280;22469;48.150;14.004;2023-02-18T03:34:06;98653.41;;;14.55;61.76
3260;BME280;22469;48.150;14.004;2023-02-18T03:36:37;98642.19;;;14.78;61.06
3260;BME280;22469;48.150;14.004;2023-02-18T03:39:10;98641.22;;;14.59;61.87
3260;BME280;22469;48.150;14.004;2023-02-18T03:41:41;98645.41;;;14.61;61.85
3260;BME280;22469;48.150;14.004;2023-02-18T03:44:10;98634.13;;;14.40;62.52
3260;BME280;22469;48.150;14.004;2023-02-18T03:46:40;98629.81;;;14.41;62.59
3260;BME280;22469;48.150;14.004;2023-02-18T03:49:13;98630.16;;;14.55;61.69
3260;BME280;22469;48.150;14.004;2023-02-18T03:51:41;98628.75;;;14.92;60.64
3260;BME280;22469;48.150;14.004;2023-02-18T03:54:09;98637.75;;;14.82;61.19
3260;BME280;22469;48.150;14.004;2023-02-18T03:56:36;98633.91;;;14.92;61.11
3260;BME280;22469;48.150;14.004;2023-02-18T03:59:04;98631.50;;;15.09;59.92
3260;BME280;22469;48.150;14.004;2023-02-18T04:01:31;98624.69;;;15.07;60.32
3260;BME280;22469;48.150;14.004;2023-02-18T04:03:58;98633.22;;;15.09;60.21
3260;BME280;22469;48.150;14.004;2023-02-18T04:06:25;98621.09;;;15.31;59.36
3260;BME280;22469;48.150;14.004;2023-02-18T04:08:52;98624.97;;;15.21;58.61
3260;BME280;22469;48.150;14.004;2023-02-18T04:11:19;98627.44;;;15.24;59.44
3260;BME280;22469;48.150;14.004;2023-02-18T04:13:46;98626.72;;;15.41;58.60
3260;BME280;22469;48.150;14.004;2023-02-18T04:16:13;98619.31;;;15.54;58.37
3260;BME280;22469;48.150;14.004;2023-02-18T04:18:40;98619.66;;;15.46;58.36
3260;BME280;22469;48.150;14.004;2023-02-18T04:21:07;98615.34;;;15.45;58.68
3260;BME280;22469;48.150;14.004;2023-02-18T04:23:34;98619.63;;;15.26;59.32
3260;BME280;22469;48.150;14.004;2023-02-18T04:26:01;98618.34;;;15.36;58.67
3260;BME280;22469;48.150;14.004;2023-02-18T04:28:28;98620.09;;;15.35;58.78
3260;BME280;22469;48.150;14.004;2023-02-18T04:30:55;98621.19;;;15.30;58.91
3260;BME280;22469;48.150;14.004;2023-02-18T04:33:22;98626.78;;;15.19;59.37
3260;BME280;22469;48.150;14.004;2023-02-18T04:35:49;98619.09;;;15.17;59.20
3260;BME280;22469;48.150;14.004;2023-02-18T04:38:16;98623.69;;;15.31;58.97
3260;BME280;22469;48.150;14.004;2023-02-18T04:40:43;98628.38;;;15.01;59.71
3260;BME280;22469;48.150;14.004;2023-02-18T04:43:10;98628.94;;;15.30;58.71
3260;BME280;22469;48.150;14.004;2023-02-18T04:45:37;98630.28;;;15.18;59.12
3260;BME280;22469;48.150;14.004;2023-02-18T04:48:04;98630.06;;;15.02;59.70
3260;BME280;22469;48.150;14.004;2023-02-18T04:50:32;98634.03;;;14.89;59.80
3260;BME280;22469;48.150;14.004;2023-02-18T04:53:00;98623.31;;;14.76;60.07
3260;BME280;22469;48.150;14.004;2023-02-18T04:55:29;98625.38;;;14.68;59.86
3260;BME280;22469;48.150;14.004;2023-02-18T04:57:56;98632.94;;;14.73;60.06
3260;BME280;22469;48.150;14.004;2023-02-18T05:00:23;98638.47;;;14.85;60.10
3260;BME280;22469;48.150;14.004;2023-02-18T05:02:50;98630.97;;;15.01;58.96
3260;BME280;22469;48.150;14.004;2023-02-18T05:05:17;98633.59;;;15.00;59.23
3260;BME280;22469;48.150;14.004;2023-02-18T05:07:44;98626.72;;;15.21;58.40
3260;BME280;22469;48.150;14.004;2023-02-18T05:10:15;98627.38;;;15.26;58.20
3260;BME280;22469;48.150;14.004;2023-02-18T05:12:43;98628.53;;;15.19;58.71
3260;BME280;22469;48.150;14.004;2023-02-18T05:15:10;98620.63;;;14.79;59.80
3260;BME280;22469;48.150;14.004;2023-02-18T05:17:37;98627.34;;;14.83;59.70
3260;BME280;22469;48.150;14.004;2023-02-18T05:20:05;98626.03;;;14.73;60.13
3260;BME280;22469;48.150;14.004;2023-02-18T05:22:35;98621.31;;;14.84;60.02
3260;BME280;22469;48.150;14.004;2023-02-18T05:25:03;98622.91;;;14.87;59.46
3260;BME280;22469;48.150;14.004;2023-02-18T05:27:30;98616.06;;;15.08;59.10
3260;BME280;22469;48.150;14.004;2023-02-18T05:29:58;98630.34;;;15.16;58.78
3260;BME280;22469;48.150;14.004;2023-02-18T05:32:25;98609.47;;;15.41;58.28
3260;BME280;22469;48.150;14.004;2023-02-18T05:34:52;98623.41;;;15.17;58.70
3260;BME280;22469;48.150;14.004;2023-02-18T05:37:19;98625.91;;;14.98;59.63
3260;BME280;22469;48.150;14.004;2023-02-18T05:39:46;98631.72;;;14.59;60.53
3260;BME280;22469;48.150;14.004;2023-02-18T05:42:13;98633.00;;;15.15;58.81
3260;BME280;22469;48.150;14.004;2023-02-18T05:44:40;98629.69;;;15.11;58.79
3260;BME280;22469;48.150;14.004;2023-02-18T05:47:09;98633.66;;;15.40;57.66
3260;BME280;22469;48.150;14.004;2023-02-18T05:49:40;98630.78;;;14.84;59.38
3260;BME280;22469;48.150;14.004;2023-02-18T05:52:08;98627.81;;;15.15;58.63
3260;BME280;22469;48.150;14.004;2023-02-18T05:54:37;98634.91;;;15.10;58.88
3260;BME280;22469;48.150;14.004;2023-02-18T05:57:05;98635.03;;;15.07;59.00
3260;BME280;22469;48.150;14.004;2023-02-18T05:59:32;98634.59;;;15.17;58.70
3260;BME280;22469;48.150;14.004;2023-02-18T06:01:59;98636.59;;;14.89;59.31
3260;BME280;22469;48.150;14.004;2023-02-18T06:04:27;98637.22;;;14.96;59.77
3260;BME280;22469;48.150;14.004;2023-02-18T06:06:54;98638.44;;;15.07;59.07
3260;BME280;22469;48.150;14.004;2023-02-18T06:09:21;98645.06;;;15.14;58.78
3260;BME280;22469;48.150;14.004;2023-02-18T06:11:48;98634.50;;;14.99;58.88
3260;BME280;22469;48.150;14.004;2023-02-18T06:14:15;98646.34;;;14.82;60.39
3260;BME280;22469;48.150;14.004;2023-02-18T06:16:42;98637.06;;;14.55;61.22
3260;BME280;22469;48.150;14.004;2023-02-18T06:19:09;98638.47;;;14.63;61.41
3260;BME280;22469;48.150;14.004;2023-02-18T06:21:36;98648.72;;;14.87;60.71
3260;BME280;22469;48.150;14.004;2023-02-18T06:24:03;98661.34;;;14.73;62.03
3260;BME280;22469;48.150;14.004;2023-02-18T06:26:30;98656.88;;;14.54;62.91
3260;BME280;22469;48.150;14.004;2023-02-18T06:28:57;98659.41;;;14.56;63.60
3260;BME280;22469;48.150;14.004;2023-02-18T06:31:24;98659.25;;;14.35;64.16
3260;BME280;22469;48.150;14.004;2023-02-18T06:33:51;98651.97;;;14.46;64.44
3260;BME280;22469;48.150;14.004;2023-02-18T06:36:18;98657.47;;;14.14;65.55
3260;BME280;22469;48.150;14.004;2023-02-18T06:38:45;98654.97;;;14.36;65.43
3260;BME280;22469;48.150;14.004;2023-02-18T06:41:13;98661.63;;;14.41;65.71
3260;BME280;22469;48.150;14.004;2023-02-18T06:43:40;98671.34;;;14.58;65.18
3260;BME280;22469;48.150;14.004;2023-02-18T06:46:07;98663.06;;;14.49;65.96
3260;BME280;22469;48.150;14.004;2023-02-18T06:48:35;98662.41;;;14.20;67.84
3260;BME280;22469;48.150;14.004;2023-02-18T06:51:04;98668.03;;;14.31;67.82
3260;BME280;22469;48.150;14.004;2023-02-18T06:53:31;98659.84;;;14.43;67.34
3260;BME280;22469;48.150;14.004;2023-02-18T06:55:58;98663.97;;;14.48;66.85
3260;BME280;22469;48.150;14.004;2023-02-18T06:58:25;98655.88;;;14.58;66.51
3260;BME280;22469;48.150;14.004;2023-02-18T07:00:52;98656.75;;;14.81;64.85
3260;BME280;22469;48.150;14.004;2023-02-18T07:03:19;98660.69;;;14.67;65.21
3260;BME280;22469;48.150;14.004;2023-02-18T07:05:46;98653.53;;;14.74;64.70
3260;BME280;22469;48.150;14.004;2023-02-18T07:08:13;98657.63;;;15.02;63.70
3260;BME280;22469;48.150;14.004;2023-02-18T07:10:41;98662.19;;;14.73;64.32
3260;BME280;22469;48.150;14.004;2023-02-18T07:13:08;98664.28;;;14.85;63.75
3260;BME280;22469;48.150;14.004;2023-02-18T07:15:37;98653.66;;;14.93;62.87
3260;BME280;22469;48.150;14.004;2023-02-18T07:18:04;98648.19;;;15.01;62.02
3260;BME280;22469;48.150;14.004;2023-02-18T07:20:32;98660.56;;;14.71;62.85
3260;BME280;22469;48.150;14.004;2023-02-18T07:22:59;98649.16;;;14.76;62.54
3260;BME280;22469;48.150;14.004;2023-02-18T07:25:26;98654.16;;;14.81;62.19
3260;BME280;22469;48.150;14.004;2023-02-18T07:27:53;98651.38;;;14.63;62.47
3260;BME280;22469;48.150;14.004;2023-02-18T07:30:20;98647.56;;;14.74;62.04
3260;BME280;22469;48.150;14.004;2023-02-18T07:32:48;98656.81;;;15.01;61.06
3260;BME280;22469;48.150;14.004;2023-02-18T07:35:16;98657.91;;;15.16;60.88
3260;BME280;22469;48.150;14.004;2023-02-18T07:37:48;98664.72;;;15.19;60.45
3260;BME280;22469;48.150;14.004;2023-02-18T07:40:18;98663.31;;;15.32;59.97
3260;BME280;22469;48.150;14.004;2023-02-18T07:42:47;98664.09;;;15.34;59.33
3260;BME280;22469;48.150;14.004;2023-02-18T07:45:14;98670.16;;;15.33;59.61
3260;BME280;22469;48.150;14.004;2023-02-18T07:47:42;98674.44;;;15.54;59.18
3260;BME280;22469;48.150;14.004;2023-02-18T07:50:11;98655.53;;;15.74;58.53
3260;BME280;22469;48.150;14.004;2023-02-18T07:52:38;98664.69;;;15.61;58.52
3260;BME280;22469;48.150;14.004;2023-02-18T07:55:05;98669.34;;;15.53;58.88
3260;BME280;22469;48.150;14.004;2023-02-18T07:57:33;98663.09;;;15.79;58.15
3260;BME280;22469;48.150;14.004;2023-02-18T08:00:20;98653.59;;;15.79;58.02
3260;BME280;22469;48.150;14.004;2023-02-18T08:02:47;98658.22;;;15.73;58.37
3260;BME280;22469;48.150;14.004;2023-02-18T08:05:14;98647.78;;;15.74;57.51
3260;BME280;22469;48.150;14.004;2023-02-18T08:07:41;98661.97;;;15.64;58.19
3260;BME280;22469;48.150;14.004;2023-02-18T08:10:08;98660.59;;;15.55;58.72
3260;BME280;22469;48.150;14.004;2023-02-18T08:12:35;98657.81;;;15.82;57.93
3260;BME280;22469;48.150;14.004;2023-02-18T08:15:02;98655.03;;;15.86;57.74
3260;BME280;22469;48.150;14.004;2023-02-18T08:17:29;98655.75;;;15.70;58.12
3260;BME280;22469;48.150;14.004;2023-02-18T08:19:56;98659.53;;;15.61;57.94
3260;BME280;22469;48.150;14.004;2023-02-18T08:22:23;98661.06;;;15.02;59.76
3260;BME280;22469;48.150;14.004;2023-02-18T08:24:53;98660.59;;;15.55;58.92
3260;BME280;22469;48.150;14.004;2023-02-18T08:27:22;98674.00;;;15.65;58.01
3260;BME280;22469;48.150;14.004;2023-02-18T08:29:49;98662.63;;;15.49;58.68
3260;BME280;22469;48.150;14.004;2023-02-18T08:32:16;98667.38;;;15.37;59.27
3260;BME280;22469;48.150;14.004;2023-02-18T08:34:43;98668.41;;;14.91;60.34
3260;BME280;22469;48.150;14.004;2023-02-18T08:37:10;98660.81;;;15.08;60.74
3260;BME280;22469;48.150;14.004;2023-02-18T08:39:38;98667.72;;;15.30;60.21
3260;BME280;22469;48.150;14.004;2023-02-18T08:42:05;98659.75;;;14.92;61.03
3260;BME280;22469;48.150;14.004;2023-02-18T08:44:32;98658.06;;;14.91;61.10
3260;BME280;22469;48.150;14.004;2023-02-18T08:46:59;98654.66;;;15.33;59.99
3260;BME280;22469;48.150;14.004;2023-02-18T08:49:26;98651.50;;;15.04;60.21
3260;BME280;22469;48.150;14.004;2023-02-18T08:51:54;98653.22;;;15.26;60.13
3260;BME280;22469;48.150;14.004;2023-02-18T08:54:21;98646.63;;;15.19;60.55
3260;BME280;22469;48.150;14.004;2023-02-18T08:56:48;98627.06;;;15.54;59.36
3260;BME280;22469;48.150;14.004;2023-02-18T08:59:15;98642.06;;;15.25;59.12
3260;BME280;22469;48.150;14.004;2023-02-18T09:01:42;98635.91;;;15.48;59.08
3260;BME280;22469;48.150;14.004;2023-02-18T09:04:09;98642.84;;;15.05;59.06
3260;BME280;22469;48.150;14.004;2023-02-18T09:06:37;98634.44;;;15.43;58.69
3260;BME280;22469;48.150;14.004;2023-02-18T09:09:05;98624.56;;;15.52;59.07
3260;BME280;22469;48.150;14.004;2023-02-18T09:11:32;98613.38;;;15.72;58.23
3260;BME280;22469;48.150;14.004;2023-02-18T09:13:59;98620.09;;;15.97;56.89
3260;BME280;22469;48.150;14.004;2023-02-18T09:16:26;98615.75;;;16.16;56.77
3260;BME280;22469;48.150;14.004;2023-02-18T09:18:54;98611.84;;;15.68;58.18
3260;BME280;22469;48.150;14.004;2023-02-18T09:21:21;98615.91;;;15.53;58.25
3260;BME280;22469;48.150;14.004;2023-02-18T09:23:49;98614.25;;;15.73;57.93
3260;BME280;22469;48.150;14.004;2023-02-18T09:26:18;98608.00;;;16.16;56.56
3260;BME280;22469;48.150;14.004;2023-02-18T09:28:52;98600.31;;;16.15;55.60
3260;BME280;22469;48.150;14.004;2023-02-18T09:31:22;98601.69;;;15.84;56.96
3260;BME280;22469;48.150;14.004;2023-02-18T09:33:53;98597.47;;;15.61;57.05
3260;BME280;22469;48.150;14.004;2023-02-18T09:36:21;98587.00;;;15.44;56.38
3260;BME280;22469;48.150;14.004;2023-02-18T09:38:49;98594.53;;;15.70;56.92
3260;BME280;22469;48.150;14.004;2023-02-18T09:41:46;98585.84;;;16.10;56.36
3260;BME280;22469;48.150;14.004;2023-02-18T09:44:22;98579.56;;;15.77;55.95
3260;BME280;22469;48.150;14.004;2023-02-18T09:49:53;98584.94;;;16.11;54.34
3260;BME280;22469;48.150;14.004;2023-02-18T09:52:27;98582.84;;;16.75;53.70
3260;BME280;22469;48.150;14.004;2023-02-18T09:54:56;98571.72;;;16.54;53.33
3260;BME280;22469;48.150;14.004;2023-02-18T09:57:39;98555.84;;;16.98;51.84
3260;BME280;22469;48.150;14.004;2023-02-18T10:00:16;98557.88;;;16.91;52.66
3260;BME280;22469;48.150;14.004;2023-02-18T10:03:01;98550.06;;;16.93;50.91
3260;BME280;22469;48.150;14.004;2023-02-18T10:05:32;98559.75;;;16.70;50.97
3260;BME280;22469;48.150;14.004;2023-02-18T10:08:03;98549.38;;;17.07;50.85
3260;BME280;22469;48.150;14.004;2023-02-18T10:10:42;98539.41;;;16.63;50.06
3260;BME280;22469;48.150;14.004;2023-02-18T10:13:20;98542.53;;;16.69;51.01
3260;BME280;22469;48.150;14.004;2023-02-18T10:15:50;98544.34;;;16.67;49.66
3260;BME280;22469;48.150;14.004;2023-02-18T10:18:26;98530.59;;;17.01;48.93
3260;BME280;22469;48.150;14.004;2023-02-18T10:21:19;98533.44;;;16.61;48.84
3260;BME280;22469;48.150;14.004;2023-02-18T10:26:48;98515.00;;;16.86;48.78
3260;BME280;22469;48.150;14.004;2023-02-18T10:29:17;98513.19;;;16.69;48.18
3260;BME280;22469;48.150;14.004;2023-02-18T10:34:59;98507.44;;;16.81;49.03
3260;BME280;22469;48.150;14.004;2023-02-18T10:37:41;98502.84;;;17.21;48.01
3260;BME280;22469;48.150;14.004;2023-02-18T10:43:40;98486.78;;;17.14;48.59
3260;BME280;22469;48.150;14.004;2023-02-18T10:49:29;98495.84;;;16.34;50.84
3260;BME280;22469;48.150;14.004;2023-02-18T10:52:02;98492.44;;;16.15;51.00
3260;BME280;22469;48.150;14.004;2023-02-18T10:57:27;98475.91;;;16.54;50.38
3260;BME280;22469;48.150;14.004;2023-02-18T11:00:14;98469.59;;;16.59;50.33
3260;BME280;22469;48.150;14.004;2023-02-18T11:02:41;98474.34;;;16.51;50.22
3260;BME280;22469;48.150;14.004;2023-02-18T11:05:23;98463.31;;;16.29;50.39
3260;BME280;22469;48.150;14.004;2023-02-18T11:07:57;98459.25;;;16.23;51.19
3260;BME280;22469;48.150;14.004;2023-02-18T11:10:35;98445.47;;;16.59;50.20
3260;BME280;22469;48.150;14.004;2023-02-18T11:13:07;98450.44;;;16.81;49.89
3260;BME280;22469;48.150;14.004;2023-02-18T11:15:36;98438.16;;;16.85;49.58
3260;BME280;22469;48.150;14.004;2023-02-18T11:18:27;98433.25;;;17.13;49.72
3260;BME280;22469;48.150;14.004;2023-02-18T11:21:02;98419.53;;;17.11;49.76
3260;BME280;22469;48.150;14.004;2023-02-18T11:23:45;98435.69;;;16.64;49.73
3260;BME280;22469;48.150;14.004;2023-02-18T11:26:41;98438.44;;;16.61;50.81
3260;BME280;22469;48.150;14.004;2023-02-18T11:29:21;98428.84;;;16.63;50.40
3260;BME280;22469;48.150;14.004;2023-02-18T11:31:53;98440.44;;;16.56;50.76
3260;BME280;22469;48.150;14.004;2023-02-18T11:34:26;98438.09;;;16.69;51.24
3260;BME280;22469;48.150;14.004;2023-02-18T11:37:07;98421.84;;;17.00;50.09
3260;BME280;22469;48.150;14.004;2023-02-18T11:39:42;98412.16;;;17.03;50.57
3260;BME280;22469;48.150;14.004;2023-02-18T11:42:17;98420.16;;;17.32;49.85
3260;BME280;22469;48.150;14.004;2023-02-18T11:44:59;98415.97;;;17.29;49.87
3260;BME280;22469;48.150;14.004;2023-02-18T11:47:34;98415.41;;;17.40;49.59
3260;BME280;22469;48.150;14.004;2023-02-18T11:52:38;98392.81;;;17.74;48.88
3260;BME280;22469;48.150;14.004;2023-02-18T11:55:24;98390.41;;;17.71;48.48
3260;BME280;22469;48.150;14.004;2023-02-18T11:58:04;98380.19;;;17.99;48.87
3260;BME280;22469;48.150;14.004;2023-02-18T12:00:40;98377.69;;;17.98;48.69
3260;BME280;22469;48.150;14.004;2023-02-18T12:03:38;98376.59;;;17.70;48.91
3260;BME280;22469;48.150;14.004;2023-02-18T12:06:22;98359.72;;;17.79;49.68
3260;BME280;22469;48.150;14.004;2023-02-18T12:11:48;98347.56;;;17.80;49.67
3260;BME280;22469;48.150;14.004;2023-02-18T12:14:20;98337.88;;;17.51;49.77
3260;BME280;22469;48.150;14.004;2023-02-18T12:23:35;98301.91;;;17.91;48.60
3260;BME280;22469;48.150;14.004;2023-02-18T12:34:52;98293.25;;;17.76;48.90
3260;BME280;22469;48.150;14.004;2023-02-18T12:37:58;98295.03;;;17.44;49.54
3260;BME280;22469;48.150;14.004;2023-02-18T12:40:56;98287.91;;;17.48;48.54
3260;BME280;22469;48.150;14.004;2023-02-18T12:46:33;98278.94;;;17.69;48.31
3260;BME280;22469;48.150;14.004;2023-02-18T13:11:44;98236.94;;;17.79;46.92
3260;BME280;22469;48.150;14.004;2023-02-18T13:14:22;98242.44;;;17.72;46.92
3260;BME280;22469;48.150;14.004;2023-02-18T13:16:55;98231.31;;;18.00;46.59
3260;BME280;22469;48.150;14.004;2023-02-18T13:19:45;98236.97;;;17.93;47.16
3260;BME280;22469;48.150;14.004;2023-02-18T13:22:19;98220.84;;;18.02;46.77
3260;BME280;22469;48.150;14.004;2023-02-18T13:24:47;98221.84;;;17.85;47.11
3260;BME280;22469;48.150;14.004;2023-02-18T13:39:13;98209.09;;;18.11;46.53
3260;BME280;22469;48.150;14.004;2023-02-18T13:41:48;98222.88;;;18.11;47.14
3260;BME280;22469;48.150;14.004;2023-02-18T13:46:54;98203.41;;;18.18;47.28
3260;BME280;22469;48.150;14.004;2023-02-18T13:49:27;98197.88;;;18.24;47.40
3260;BME280;22469;48.150;14.004;2023-02-18T13:52:00;98199.16;;;18.32;47.48
3260;BME280;22469;48.150;14.004;2023-02-18T13:54:32;98185.00;;;18.09;47.60
3260;BME280;22469;48.150;14.004;2023-02-18T13:57:04;98190.63;;;18.01;47.05
3260;BME280;22469;48.150;14.004;2023-02-18T13:59:37;98197.75;;;18.12;47.52
3260;BME280;22469;48.150;14.004;2023-02-18T14:09:52;98195.91;;;18.14;47.36
3260;BME280;22469;48.150;14.004;2023-02-18T14:14:57;98187.94;;;18.60;47.43
3260;BME280;22469;48.150;14.004;2023-02-18T14:17:34;98186.81;;;18.35;46.37
3260;BME280;22469;48.150;14.004;2023-02-18T14:22:41;98191.75;;;18.40;47.63
3260;BME280;22469;48.150;14.004;2023-02-18T14:27:53;98183.63;;;19.02;44.82
3260;BME280;22469;48.150;14.004;2023-02-18T14:32:50;98190.41;;;18.90;44.46
3260;BME280;22469;48.150;14.004;2023-02-18T14:47:05;98186.38;;;18.14;45.27
3260;BME280;22469;48.150;14.004;2023-02-18T14:50:00;98181.50;;;17.80;45.45
3260;BME280;22469;48.150;14.004;2023-02-18T14:52:32;98181.53;;;17.94;45.44
3260;BME280;22469;48.150;14.004;2023-02-18T14:55:05;98179.66;;;17.82;45.71
3260;BME280;22469;48.150;14.004;2023-02-18T14:58:02;98182.28;;;17.66;45.90
3260;BME280;22469;48.150;14.004;2023-02-18T15:00:41;98190.72;;;17.39;46.69
3260;BME280;22469;48.150;14.004;2023-02-18T15:03:15;98180.44;;;17.68;46.21
3260;BME280;22469;48.150;14.004;2023-02-18T15:05:44;98190.31;;;17.91;45.25
3260;BME280;22469;48.150;14.004;2023-02-18T15:08:18;98189.72;;;17.42;46.50
3260;BME280;22469;48.150;14.004;2023-02-18T15:11:00;98184.31;;;17.61;45.83
3260;BME280;22469;48.150;14.004;2023-02-18T15:13:36;98196.03;;;17.52;46.96
3260;BME280;22469;48.150;14.004;2023-02-18T15:16:29;98184.97;;;17.64;46.09
3260;BME280;22469;48.150;14.004;2023-02-18T15:19:01;98187.34;;;17.83;45.51
3260;BME280;22469;48.150;14.004;2023-02-18T15:21:42;98185.59;;;17.84;46.25
3260;BME280;22469;48.150;14.004;2023-02-18T15:24:30;98199.13;;;17.59;45.67
3260;BME280;22469;48.150;14.004;2023-02-18T15:27:08;98185.53;;;17.39;46.26
3260;BME280;22469;48.150;14.004;2023-02-18T15:29:38;98183.59;;;17.43;46.53
3260;BME280;22469;48.150;14.004;2023-02-18T15:32:20;98190.59;;;17.87;45.73
3260;BME280;22469;48.150;14.004;2023-02-18T15:34:53;98182.88;;;17.71;46.06
3260;BME280;22469;48.150;14.004;2023-02-18T15:37:23;98186.19;;;17.43;46.73
3260;BME280;22469;48.150;14.004;2023-02-18T15:39:50;98185.22;;;17.60;46.17
3260;BME280;22469;48.150;14.004;2023-02-18T15:42:32;98182.56;;;17.15;47.22
3260;BME280;22469;48.150;14.004;2023-02-18T15:45:23;98188.44;;;17.49;46.45
3260;BME280;22469;48.150;14.004;2023-02-18T15:47:57;98191.59;;;17.08;47.54
3260;BME280;22469;48.150;14.004;2023-02-18T15:50:29;98190.41;;;17.29;47.14
3260;BME280;22469;48.150;14.004;2023-02-18T15:53:08;98190.16;;;17.34;47.41
3260;BME280;22469;48.150;14.004;2023-02-18T15:55:42;98178.63;;;17.24;47.46
3260;BME280;22469;48.150;14.004;2023-02-18T15:58:16;98180.28;;;17.25;47.86
3260;BME280;22469;48.150;14.004;2023-02-18T16:00:53;98192.56;;;17.37;46.83
3260;BME280;22469;48.150;14.004;2023-02-18T16:03:30;98187.91;;;17.12;47.76